sensor_id;sensor_type;location;lat;lon;timestamp;pressure;altitude;pressure_sealevel;temperature;humidity
78142;BME280;67393;52.620;13.482;2023-02-28T18:21:18;102724.78;;;-0.67;100.00
78142;BME280;67393;52.620;13.482;2023-02-28T18:23:44;102728.38;;;-0.65;100.00
78142;BME280;67393;52.620;13.482;2023-02-28T18:26:10;102726.41;;;-0.69;100.00
78142;BME280;67393;52.620;13.482;2023-02-28T18:28:37;102728.72;;;-0.76;100.00
78142;BME280;67393;52.620;13.482;2023-02-28T18:31:12;102739.50;;;-0.86;100.00
78142;BME280;67393;52.620;13.482;2023-02-28T18:33:38;102742.47;;;-0.96;100.00
78142;BME280;67393;52.620;13.482;2023-02-28T18:36:05;102750.53;;;-0.91;100.00
78142;BME280;67393;52.620;13.482;2023-02-28T18:38:31;102747.97;;;-0.90;100.00
78142;BME280;67393;52.620;13.482;2023-02-28T18:41:00;102747.69;;;-0.96;100.00
78142;BME280;67393;52.620;13.482;2023-02-28T18:43:29;102746.75;;;-0.96;100.00
78142;BME280;67393;52.620;13.482;2023-02-28T18:45:55;102751.31;;;-0.92;100.00
78142;BME280;67393;52.620;13.482;2023-02-28T18:48:22;102758.81;;;-0.82;100.00
78142;BME280;67393;52.620;13.482;2023-02-28T18:50:50;102753.16;;;-0.74;100.00
78142;BME280;67393;52.620;13.482;2023-02-28T18:53:17;102759.19;;;-0.75;100.00
78142;BME280;67393;52.620;13.482;2023-02-28T18:55:43;102751.38;;;-0.75;100.00
78142;BME280;67393;52.620;13.482;2023-02-28T18:58:10;102757.41;;;-0.76;100.00
78142;BME280;67393;52.620;13.482;2023-02-28T19:00:36;102755.56;;;-0.94;100.00
78142;BME280;67393;52.620;13.482;2023-02-28T19:03:03;102751.91;;;-0.98;100.00
78142;BME280;67393;52.620;13.482;2023-02-28T19:05:29;102749.13;;;-1.01;100.00
78142;BME280;67393;52.620;13.482;2023-02-28T19:07:55;102748.09;;;-1.05;100.00
78142;BME280;67393;52.620;13.482;2023-02-28T19:10:22;102738.00;;;-0.99;100.00
78142;BME280;67393;52.620;13.482;2023-02-28T19:12:48;102744.59;;;-1.05;100.00
78142;BME280;67393;52.620;13.482;2023-02-28T19:15:14;102741.53;;;-1.14;100.00
78142;BME280;67393;52.620;13.482;2023-02-28T19:17:41;102749.22;;;-1.16;100.00
78142;BME280;67393;52.620;13.482;2023-02-28T19:20:08;102742.06;;;-1.20;100.00
78142;BME280;67393;52.620;13.482;2023-02-28T19:22:35;102753.63;;;-1.31;100.00
78142;BME280;67393;52.620;13.482;2023-02-28T19:25:04;102753.16;;;-1.40;100.00
78142;BME280;67393;52.620;13.482;2023-02-28T19:27:31;102747.94;;;-1.40;100.00
78142;BME280;67393;52.620;13.482;2023-02-28T19:29:57;102752.81;;;-1.47;100.00
78142;BME280;67393;52.620;13.482;2023-02-28T19:32:24;102749.97;;;-1.51;100.00
78142;BME280;67393;52.620;13.482;2023-02-28T19:34:51;102751.44;;;-1.56;100.00
78142;BME280;67393;52.620;13.482;2023-02-28T19:37:17;102752.16;;;-1.59;100.00
78142;BME280;67393;52.620;13.482;2023-02-28T19:39:44;102747.84;;;-1.75;100.00
78142;BME280;67393;52.620;13.482;2023-02-28T19:42:13;102746.53;;;-1.66;100.00
78142;BME280;67393;52.620;13.482;2023-02-28T19:44:40;102748.97;;;-1.69;100.00
78142;BME280;67393;52.620;13.482;2023-02-28T19:47:07;102742.00;;;-1.70;100.00
78142;BME280;67393;52.620;13.482;2023-02-28T19:49:33;102750.44;;;-1.75;100.00
78142;BME280;67393;52.620;13.482;2023-02-28T19:52:00;102746.34;;;-1.86;100.00
78142;BME280;67393;52.620;13.482;2023-02-28T19:54:26;102742.81;;;-1.72;100.00
78142;BME280;67393;52.620;13.482;2023-02-28T19:56:53;102742.63;;;-1.75;100.00
78142;BME280;67393;52.620;13.482;2023-02-28T19:59:20;102741.81;;;-1.74;100.00
78142;BME280;67393;52.620;13.482;2023-02-28T20:01:56;102734.47;;;-1.81;100.00
78142;BME280;67393;52.620;13.482;2023-02-28T20:04:23;102740.50;;;-1.82;100.00
